sensor_id;sensor_type;location;lat;lon;timestamp;temperature;humidity
16532;DHT22;66872;63.142;14.482;2023-04-25T00:00:33;13.80;1.00
16532;DHT22;66872;63.142;14.482;2023-04-25T00:02:59;13.80;1.00
16532;DHT22;66872;63.142;14.482;2023-04-25T00:05:26;13.80;1.00
16532;DHT22;66872;63.142;14.482;2023-04-25T00:07:52;13.80;1.00
16532;DHT22;66872;63.142;14.482;2023-04-25T00:10:19;13.80;1.00
16532;DHT22;66872;63.142;14.482;2023-04-25T00:12:45;13.80;1.00
16532;DHT22;66872;63.142;14.482;2023-04-25T00:15:11;13.80;1.00
16532;DHT22;66872;63.142;14.482;2023-04-25T00:17:37;13.80;1.00
16532;DHT22;66872;63.142;14.482;2023-04-25T00:20:05;13.80;1.00
16532;DHT22;66872;63.142;14.482;2023-04-25T00:22:33;13.80;1.00
16532;DHT22;66872;63.142;14.482;2023-04-25T00:25:00;13.80;1.00
16532;DHT22;66872;63.142;14.482;2023-04-25T00:27:26;13.80;1.00
16532;DHT22;66872;63.142;14.482;2023-04-25T00:29:52;13.80;1.00
16532;DHT22;66872;63.142;14.482;2023-04-25T00:32:17;13.80;1.00
16532;DHT22;66872;63.142;14.482;2023-04-25T00:34:43;13.80;1.00
16532;DHT22;66872;63.142;14.482;2023-04-25T00:37:08;13.80;1.00
16532;DHT22;66872;63.142;14.482;2023-04-25T00:39:35;13.80;1.00
16532;DHT22;66872;63.142;14.482;2023-04-25T00:42:02;13.70;1.00
16532;DHT22;66872;63.142;14.482;2023-04-25T00:44:29;13.70;1.00
16532;DHT22;66872;63.142;14.482;2023-04-25T00:46:56;13.70;1.00
16532;DHT22;66872;63.142;14.482;2023-04-25T00:49:21;13.70;1.00
16532;DHT22;66872;63.142;14.482;2023-04-25T00:51:48;13.70;1.00
16532;DHT22;66872;63.142;14.482;2023-04-25T00:54:14;13.70;1.00
16532;DHT22;66872;63.142;14.482;2023-04-25T00:56:40;13.70;1.00
16532;DHT22;66872;63.142;14.482;2023-04-25T00:59:06;13.70;1.00
16532;DHT22;66872;63.142;14.482;2023-04-25T01:01:32;13.70;1.00
16532;DHT22;66872;63.142;14.482;2023-04-25T01:03:58;13.70;1.00
16532;DHT22;66872;63.142;14.482;2023-04-25T01:06:24;13.70;1.00
16532;DHT22;66872;63.142;14.482;2023-04-25T01:08:51;13.70;1.00
16532;DHT22;66872;63.142;14.482;2023-04-25T01:11:17;13.70;1.00
16532;DHT22;66872;63.142;14.482;2023-04-25T01:13:43;13.70;1.00
16532;DHT22;66872;63.142;14.482;2023-04-25T01:16:09;13.70;1.00
16532;DHT22;66872;63.142;14.482;2023-04-25T01:18:37;13.70;1.00
16532;DHT22;66872;63.142;14.482;2023-04-25T01:21:10;13.70;1.00
16532;DHT22;66872;63.142;14.482;2023-04-25T01:23:37;13.70;1.00
16532;DHT22;66872;63.142;14.482;2023-04-25T01:26:04;13.70;1.00
16532;DHT22;66872;63.142;14.482;2023-04-25T01:28:30;13.70;1.00
16532;DHT22;66872;63.142;14.482;2023-04-25T01:30:56;13.70;1.00
16532;DHT22;66872;63.142;14.482;2023-04-25T01:33:22;13.60;1.00
16532;DHT22;66872;63.142;14.482;2023-04-25T01:35:48;13.60;1.00
16532;DHT22;66872;63.142;14.482;2023-04-25T01:38:14;13.60;1.00
16532;DHT22;66872;63.142;14.482;2023-04-25T01:40:40;13.60;1.00
16532;DHT22;66872;63.142;14.482;2023-04-25T01:43:07;13.60;1.00
16532;DHT22;66872;63.142;14.482;2023-04-25T01:45:37;13.60;1.00
16532;DHT22;66872;63.142;14.482;2023-04-25T01:48:05;13.60;1.00
16532;DHT22;66872;63.142;14.482;2023-04-25T01:50:31;13.60;1.00
16532;DHT22;66872;63.142;14.482;2023-04-25T01:52:57;13.60;1.00
16532;DHT22;66872;63.142;14.482;2023-04-25T01:55:22;13.60;1.00
16532;DHT22;66872;63.142;14.482;2023-04-25T01:57:48;13.60;1.00
16532;DHT22;66872;63.142;14.482;2023-04-25T02:00:14;13.60;1.00
16532;DHT22;66872;63.142;14.482;2023-04-25T02:02:40;13.60;1.00
16532;DHT22;66872;63.142;14.482;2023-04-25T02:05:06;13.60;1.00
16532;DHT22;66872;63.142;14.482;2023-04-25T02:07:32;13.60;1.00
16532;DHT22;66872;63.142;14.482;2023-04-25T02:09:58;13.60;1.00
16532;DHT22;66872;63.142;14.482;2023-04-25T02:12:23;13.60;1.00
16532;DHT22;66872;63.142;14.482;2023-04-25T02:14:51;13.50;1.00
16532;DHT22;66872;63.142;14.482;2023-04-25T02:17:17;13.50;1.00
16532;DHT22;66872;63.142;14.482;2023-04-25T02:19:43;13.50;1.00
16532;DHT22;66872;63.142;14.482;2023-04-25T02:22:09;13.50;1.00
16532;DHT22;66872;63.142;14.482;2023-04-25T02:24:35;13.50;1.00
16532;DHT22;66872;63.142;14.482;2023-04-25T02:27:01;13.50;1.00
16532;DHT22;66872;63.142;14.482;2023-04-25T02:29:27;13.50;1.00
16532;DHT22;66872;63.142;14.482;2023-04-25T02:31:53;13.50;1.00
16532;DHT22;66872;63.142;14.482;2023-04-25T02:34:18;13.50;1.00
16532;DHT22;66872;63.142;14.482;2023-04-25T02:36:44;13.50;1.00
16532;DHT22;66872;63.142;14.482;2023-04-25T02:39:10;13.50;1.00
16532;DHT22;66872;63.142;14.482;2023-04-25T02:41:36;13.50;1.00
16532;DHT22;66872;63.142;14.482;2023-04-25T02:44:01;13.50;1.00
16532;DHT22;66872;63.142;14.482;2023-04-25T02:46:27;13.50;1.00
16532;DHT22;66872;63.142;14.482;2023-04-25T02:48:52;13.50;1.00
16532;DHT22;66872;63.142;14.482;2023-04-25T02:51:18;13.50;1.00
16532;DHT22;66872;63.142;14.482;2023-04-25T02:53:44;13.50;1.00
16532;DHT22;66872;63.142;14.482;2023-04-25T02:56:10;13.50;1.00
16532;DHT22;66872;63.142;14.482;2023-04-25T02:58:36;13.50;1.00
16532;DHT22;66872;63.142;14.482;2023-04-25T03:01:01;13.50;1.00
16532;DHT22;66872;63.142;14.482;2023-04-25T03:03:27;13.40;1.00
16532;DHT22;66872;63.142;14.482;2023-04-25T03:05:53;13.40;1.00
16532;DHT22;66872;63.142;14.482;2023-04-25T03:08:19;13.40;1.00
16532;DHT22;66872;63.142;14.482;2023-04-25T03:10:45;13.40;1.00
16532;DHT22;66872;63.142;14.482;2023-04-25T03:13:10;13.40;1.00
16532;DHT22;66872;63.142;14.482;2023-04-25T03:15:37;13.40;1.00
16532;DHT22;66872;63.142;14.482;2023-04-25T03:18:03;13.40;1.00
16532;DHT22;66872;63.142;14.482;2023-04-25T03:20:29;13.40;1.00
16532;DHT22;66872;63.142;14.482;2023-04-25T03:22:55;13.40;1.00
16532;DHT22;66872;63.142;14.482;2023-04-25T03:25:20;13.40;1.00
16532;DHT22;66872;63.142;14.482;2023-04-25T03:27:46;13.40;1.00
16532;DHT22;66872;63.142;14.482;2023-04-25T03:30:12;13.40;1.00
16532;DHT22;66872;63.142;14.482;2023-04-25T03:32:37;13.40;1.00
16532;DHT22;66872;63.142;14.482;2023-04-25T03:35:04;13.40;1.00
16532;DHT22;66872;63.142;14.482;2023-04-25T03:37:30;13.40;1.00
16532;DHT22;66872;63.142;14.482;2023-04-25T03:39:56;13.40;1.00
16532;DHT22;66872;63.142;14.482;2023-04-25T03:42:22;13.40;1.00
16532;DHT22;66872;63.142;14.482;2023-04-25T03:44:49;13.40;1.00
16532;DHT22;66872;63.142;14.482;2023-04-25T03:47:15;13.40;1.00
16532;DHT22;66872;63.142;14.482;2023-04-25T03:49:41;13.40;1.00
16532;DHT22;66872;63.142;14.482;2023-04-25T03:52:07;13.40;1.00
16532;DHT22;66872;63.142;14.482;2023-04-25T03:54:33;13.40;1.00
16532;DHT22;66872;63.142;14.482;2023-04-25T03:56:58;13.40;1.00
16532;DHT22;66872;63.142;14.482;2023-04-25T03:59:24;13.40;1.00
16532;DHT22;66872;63.142;14.482;2023-04-25T04:01:51;13.40;1.00
16532;DHT22;66872;63.142;14.482;2023-04-25T04:04:17;13.40;1.00
16532;DHT22;66872;63.142;14.482;2023-04-25T04:06:43;13.40;1.00
16532;DHT22;66872;63.142;14.482;2023-04-25T04:09:09;13.40;1.00
16532;DHT22;66872;63.142;14.482;2023-04-25T04:11:37;13.40;1.00
16532;DHT22;66872;63.142;14.482;2023-04-25T04:14:07;13.40;1.00
16532;DHT22;66872;63.142;14.482;2023-04-25T04:16:33;13.40;1.00
16532;DHT22;66872;63.142;14.482;2023-04-25T04:18:59;13.40;1.00
16532;DHT22;66872;63.142;14.482;2023-04-25T04:21:24;13.40;1.00
16532;DHT22;66872;63.142;14.482;2023-04-25T04:23:52;13.40;1.00
16532;DHT22;66872;63.142;14.482;2023-04-25T04:26:17;13.40;1.00
16532;DHT22;66872;63.142;14.482;2023-04-25T04:28:43;13.40;1.00
16532;DHT22;66872;63.142;14.482;2023-04-25T04:31:10;13.40;1.00
16532;DHT22;66872;63.142;14.482;2023-04-25T04:33:36;13.40;1.00
16532;DHT22;66872;63.142;14.482;2023-04-25T04:36:03;13.40;1.00
16532;DHT22;66872;63.142;14.482;2023-04-25T04:38:29;13.40;1.00
16532;DHT22;66872;63.142;14.482;2023-04-25T04:40:54;13.40;1.00
16532;DHT22;66872;63.142;14.482;2023-04-25T04:43:21;13.40;1.00
16532;DHT22;66872;63.142;14.482;2023-04-25T04:45:48;13.40;1.00
16532;DHT22;66872;63.142;14.482;2023-04-25T04:48:15;13.40;1.00
16532;DHT22;66872;63.142;14.482;2023-04-25T04:50:43;13.40;1.00
16532;DHT22;66872;63.142;14.482;2023-04-25T04:53:11;13.40;1.00
16532;DHT22;66872;63.142;14.482;2023-04-25T04:55:37;13.40;1.00
16532;DHT22;66872;63.142;14.482;2023-04-25T04:58:02;13.40;1.00
16532;DHT22;66872;63.142;14.482;2023-04-25T05:00:28;13.40;1.00
16532;DHT22;66872;63.142;14.482;2023-04-25T05:02:57;13.50;1.00
16532;DHT22;66872;63.142;14.482;2023-04-25T05:05:23;13.50;1.00
16532;DHT22;66872;63.142;14.482;2023-04-25T05:07:49;13.50;1.00
16532;DHT22;66872;63.142;14.482;2023-04-25T05:10:17;13.50;1.00
16532;DHT22;66872;63.142;14.482;2023-04-25T05:12:43;13.50;1.00
16532;DHT22;66872;63.142;14.482;2023-04-25T05:15:09;13.50;1.00
16532;DHT22;66872;63.142;14.482;2023-04-25T05:17:36;13.50;1.00
16532;DHT22;66872;63.142;14.482;2023-04-25T05:20:02;13.50;1.00
16532;DHT22;66872;63.142;14.482;2023-04-25T05:22:28;13.50;1.00
16532;DHT22;66872;63.142;14.482;2023-04-25T05:24:53;13.50;1.00
16532;DHT22;66872;63.142;14.482;2023-04-25T05:27:20;13.60;1.00
16532;DHT22;66872;63.142;14.482;2023-04-25T05:29:45;13.60;1.00
16532;DHT22;66872;63.142;14.482;2023-04-25T05:32:11;13.60;1.00
16532;DHT22;66872;63.142;14.482;2023-04-25T05:34:37;13.60;1.00
16532;DHT22;66872;63.142;14.482;2023-04-25T05:37:03;13.60;1.00
16532;DHT22;66872;63.142;14.482;2023-04-25T05:39:28;13.60;1.00
16532;DHT22;66872;63.142;14.482;2023-04-25T05:41:54;13.60;1.00
16532;DHT22;66872;63.142;14.482;2023-04-25T05:44:20;13.60;1.00
16532;DHT22;66872;63.142;14.482;2023-04-25T05:46:46;13.60;1.00
16532;DHT22;66872;63.142;14.482;2023-04-25T05:49:12;13.70;1.00
16532;DHT22;66872;63.142;14.482;2023-04-25T05:51:37;13.70;1.00
16532;DHT22;66872;63.142;14.482;2023-04-25T05:54:03;13.70;1.00
16532;DHT22;66872;63.142;14.482;2023-04-25T05:56:29;13.70;1.00
16532;DHT22;66872;63.142;14.482;2023-04-25T05:58:54;13.70;1.00
16532;DHT22;66872;63.142;14.482;2023-04-25T06:01:22;13.70;1.00
16532;DHT22;66872;63.142;14.482;2023-04-25T06:03:47;13.70;1.00
16532;DHT22;66872;63.142;14.482;2023-04-25T06:06:13;13.70;1.00
16532;DHT22;66872;63.142;14.482;2023-04-25T06:08:40;13.80;1.00
16532;DHT22;66872;63.142;14.482;2023-04-25T06:11:06;13.80;1.00
16532;DHT22;66872;63.142;14.482;2023-04-25T06:13:32;13.80;1.00
16532;DHT22;66872;63.142;14.482;2023-04-25T06:15:57;13.80;1.00
16532;DHT22;66872;63.142;14.482;2023-04-25T06:18:23;13.80;1.00
16532;DHT22;66872;63.142;14.482;2023-04-25T06:20:49;13.80;1.00
16532;DHT22;66872;63.142;14.482;2023-04-25T06:23:14;13.80;1.00
16532;DHT22;66872;63.142;14.482;2023-04-25T06:25:40;13.80;1.00
16532;DHT22;66872;63.142;14.482;2023-04-25T06:28:05;13.90;1.00
16532;DHT22;66872;63.142;14.482;2023-04-25T06:30:31;13.90;1.00
16532;DHT22;66872;63.142;14.482;2023-04-25T06:32:57;13.90;1.00
16532;DHT22;66872;63.142;14.482;2023-04-25T06:35:22;13.90;1.00
16532;DHT22;66872;63.142;14.482;2023-04-25T06:37:48;13.90;1.00
16532;DHT22;66872;63.142;14.482;2023-04-25T06:40:14;13.90;1.00
16532;DHT22;66872;63.142;14.482;2023-04-25T06:42:40;14.00;1.00
16532;DHT22;66872;63.142;14.482;2023-04-25T06:45:06;14.00;1.00
16532;DHT22;66872;63.142;14.482;2023-04-25T06:47:32;14.00;1.00
16532;DHT22;66872;63.142;14.482;2023-04-25T06:49:57;14.00;1.00
16532;DHT22;66872;63.142;14.482;2023-04-25T06:52:23;14.00;1.00
16532;DHT22;66872;63.142;14.482;2023-04-25T06:54:48;14.10;1.00
16532;DHT22;66872;63.142;14.482;2023-04-25T06:57:14;14.10;1.00
16532;DHT22;66872;63.142;14.482;2023-04-25T06:59:40;14.10;1.00
16532;DHT22;66872;63.142;14.482;2023-04-25T07:02:06;14.10;1.00
16532;DHT22;66872;63.142;14.482;2023-04-25T07:04:31;14.20;1.00
16532;DHT22;66872;63.142;14.482;2023-04-25T07:06:57;14.20;1.00
16532;DHT22;66872;63.142;14.482;2023-04-25T07:09:23;14.20;1.00
16532;DHT22;66872;63.142;14.482;2023-04-25T07:11:48;14.30;1.00
16532;DHT22;66872;63.142;14.482;2023-04-25T07:14:14;14.30;1.00
16532;DHT22;66872;63.142;14.482;2023-04-25T07:16:40;14.30;1.00
16532;DHT22;66872;63.142;14.482;2023-04-25T07:19:06;14.30;1.00
16532;DHT22;66872;63.142;14.482;2023-04-25T07:21:32;14.40;1.00
16532;DHT22;66872;63.142;14.482;2023-04-25T07:23:58;14.40;1.00
16532;DHT22;66872;63.142;14.482;2023-04-25T07:26:23;14.40;1.00
16532;DHT22;66872;63.142;14.482;2023-04-25T07:28:50;14.40;1.00
16532;DHT22;66872;63.142;14.482;2023-04-25T07:31:17;14.50;1.00
16532;DHT22;66872;63.142;14.482;2023-04-25T07:33:44;14.50;1.00
16532;DHT22;66872;63.142;14.482;2023-04-25T07:36:11;14.50;1.00
16532;DHT22;66872;63.142;14.482;2023-04-25T07:38:38;14.50;1.00
16532;DHT22;66872;63.142;14.482;2023-04-25T07:41:04;14.60;1.00
16532;DHT22;66872;63.142;14.482;2023-04-25T07:43:29;14.60;1.00
16532;DHT22;66872;63.142;14.482;2023-04-25T07:45:56;14.60;1.00
16532;DHT22;66872;63.142;14.482;2023-04-25T07:48:22;14.60;1.00
16532;DHT22;66872;63.142;14.482;2023-04-25T07:50:48;14.70;1.00
16532;DHT22;66872;63.142;14.482;2023-04-25T07:53:14;14.70;1.00
16532;DHT22;66872;63.142;14.482;2023-04-25T07:55:39;14.70;1.00
16532;DHT22;66872;63.142;14.482;2023-04-25T07:58:09;14.70;1.00
16532;DHT22;66872;63.142;14.482;2023-04-25T08:00:35;14.80;1.00
16532;DHT22;66872;63.142;14.482;2023-04-25T08:03:01;14.80;1.00
16532;DHT22;66872;63.142;14.482;2023-04-25T08:05:26;14.80;1.00
16532;DHT22;66872;63.142;14.482;2023-04-25T08:07:52;14.80;1.00
16532;DHT22;66872;63.142;14.482;2023-04-25T08:10:18;14.80;1.00
16532;DHT22;66872;63.142;14.482;2023-04-25T08:12:43;14.80;1.00
16532;DHT22;66872;63.142;14.482;2023-04-25T08:15:09;14.90;1.00
16532;DHT22;66872;63.142;14.482;2023-04-25T08:17:35;14.90;1.00
16532;DHT22;66872;63.142;14.482;2023-04-25T08:20:01;14.90;1.00
16532;DHT22;66872;63.142;14.482;2023-04-25T08:22:30;14.90;1.00
16532;DHT22;66872;63.142;14.482;2023-04-25T08:24:56;14.90;1.00
16532;DHT22;66872;63.142;14.482;2023-04-25T08:27:22;14.90;1.00
16532;DHT22;66872;63.142;14.482;2023-04-25T08:29:47;15.00;1.00
16532;DHT22;66872;63.142;14.482;2023-04-25T08:32:13;15.00;1.00
16532;DHT22;66872;63.142;14.482;2023-04-25T08:34:39;15.00;1.00
16532;DHT22;66872;63.142;14.482;2023-04-25T08:37:08;15.00;1.00
16532;DHT22;66872;63.142;14.482;2023-04-25T08:39:38;15.00;1.00
16532;DHT22;66872;63.142;14.482;2023-04-25T08:42:06;15.00;1.00
16532;DHT22;66872;63.142;14.482;2023-04-25T08:44:35;15.00;1.00
16532;DHT22;66872;63.142;14.482;2023-04-25T08:47:05;15.10;1.00
16532;DHT22;66872;63.142;14.482;2023-04-25T08:49:34;15.10;1.00
16532;DHT22;66872;63.142;14.482;2023-04-25T08:52:02;15.10;1.00
16532;DHT22;66872;63.142;14.482;2023-04-25T08:54:31;15.10;1.00
16532;DHT22;66872;63.142;14.482;2023-04-25T08:56:57;15.10;1.00
16532;DHT22;66872;63.142;14.482;2023-04-25T08:59:28;15.10;1.00
16532;DHT22;66872;63.142;14.482;2023-04-25T09:01:55;15.10;1.00
16532;DHT22;66872;63.142;14.482;2023-04-25T09:04:20;15.20;1.00
16532;DHT22;66872;63.142;14.482;2023-04-25T09:06:47;15.10;1.00
16532;DHT22;66872;63.142;14.482;2023-04-25T09:09:13;15.20;1.00
16532;DHT22;66872;63.142;14.482;2023-04-25T09:11:39;15.20;1.00
16532;DHT22;66872;63.142;14.482;2023-04-25T09:19:29;15.20;1.00
16532;DHT22;66872;63.142;14.482;2023-04-25T09:21:57;15.20;1.00
16532;DHT22;66872;63.142;14.482;2023-04-25T09:24:37;15.30;1.00
16532;DHT22;66872;63.142;14.482;2023-04-25T09:27:05;15.30;1.00
16532;DHT22;66872;63.142;14.482;2023-04-25T09:29:33;15.30;1.00
16532;DHT22;66872;63.142;14.482;2023-04-25T09:32:22;15.30;1.00
16532;DHT22;66872;63.142;14.482;2023-04-25T09:34:53;15.30;1.00
16532;DHT22;66872;63.142;14.482;2023-04-25T09:37:20;15.40;1.00
16532;DHT22;66872;63.142;14.482;2023-04-25T09:39:51;15.30;1.00
16532;DHT22;66872;63.142;14.482;2023-04-25T09:42:17;15.30;1.00
16532;DHT22;66872;63.142;14.482;2023-04-25T09:44:44;15.40;1.00
16532;DHT22;66872;63.142;14.482;2023-04-25T09:47:11;15.40;1.00
16532;DHT22;66872;63.142;14.482;2023-04-25T09:49:42;15.40;1.00
16532;DHT22;66872;63.142;14.482;2023-04-25T09:52:09;15.50;1.00
16532;DHT22;66872;63.142;14.482;2023-04-25T09:54:35;15.40;1.00
16532;DHT22;66872;63.142;14.482;2023-04-25T09:57:14;15.50;1.00
16532;DHT22;66872;63.142;14.482;2023-04-25T09:59:44;15.50;1.00
16532;DHT22;66872;63.142;14.482;2023-04-25T10:02:11;15.50;1.00
16532;DHT22;66872;63.142;14.482;2023-04-25T10:04:38;15.50;1.00
16532;DHT22;66872;63.142;14.482;2023-04-25T10:07:07;15.60;1.00
16532;DHT22;66872;63.142;14.482;2023-04-25T10:09:38;15.60;1.00
16532;DHT22;66872;63.142;14.482;2023-04-25T10:12:08;15.60;1.00
16532;DHT22;66872;63.142;14.482;2023-04-25T10:14:35;15.60;1.00
16532;DHT22;66872;63.142;14.482;2023-04-25T10:17:01;15.60;1.00
16532;DHT22;66872;63.142;14.482;2023-04-25T10:19:27;15.60;1.00
16532;DHT22;66872;63.142;14.482;2023-04-25T10:22:13;15.70;1.00
16532;DHT22;66872;63.142;14.482;2023-04-25T10:24:40;15.60;1.00
16532;DHT22;66872;63.142;14.482;2023-04-25T10:27:07;15.70;1.00
16532;DHT22;66872;63.142;14.482;2023-04-25T10:29:33;15.70;1.00
16532;DHT22;66872;63.142;14.482;2023-04-25T10:32:00;15.70;1.00
16532;DHT22;66872;63.142;14.482;2023-04-25T10:34:43;15.80;1.00
16532;DHT22;66872;63.142;14.482;2023-04-25T10:37:13;15.80;1.00
16532;DHT22;66872;63.142;14.482;2023-04-25T10:39:40;15.80;1.00
16532;DHT22;66872;63.142;14.482;2023-04-25T10:42:06;15.90;1.00
16532;DHT22;66872;63.142;14.482;2023-04-25T10:44:37;15.90;1.00
16532;DHT22;66872;63.142;14.482;2023-04-25T10:47:07;16.00;1.00
16532;DHT22;66872;63.142;14.482;2023-04-25T10:49:36;16.00;1.00
16532;DHT22;66872;63.142;14.482;2023-04-25T10:54:47;16.10;1.00
16532;DHT22;66872;63.142;14.482;2023-04-25T10:57:44;16.20;1.00
16532;DHT22;66872;63.142;14.482;2023-04-25T11:00:15;16.20;1.00
16532;DHT22;66872;63.142;14.482;2023-04-25T11:02:46;16.30;1.00
16532;DHT22;66872;63.142;14.482;2023-04-25T11:08:00;16.30;1.00
16532;DHT22;66872;63.142;14.482;2023-04-25T11:10:30;16.40;1.00
16532;DHT22;66872;63.142;14.482;2023-04-25T11:12:57;16.40;1.00
16532;DHT22;66872;63.142;14.482;2023-04-25T11:15:23;16.40;1.00
16532;DHT22;66872;63.142;14.482;2023-04-25T11:17:51;16.40;1.00
16532;DHT22;66872;63.142;14.482;2023-04-25T11:20:17;16.40;1.00
16532;DHT22;66872;63.142;14.482;2023-04-25T11:22:45;16.40;1.00
16532;DHT22;66872;63.142;14.482;2023-04-25T11:25:12;16.40;1.00
16532;DHT22;66872;63.142;14.482;2023-04-25T11:27:51;16.40;1.00
16532;DHT22;66872;63.142;14.482;2023-04-25T11:30:18;16.40;1.00
16532;DHT22;66872;63.142;14.482;2023-04-25T11:32:44;16.50;1.00
16532;DHT22;66872;63.142;14.482;2023-04-25T11:35:10;16.50;1.00
16532;DHT22;66872;63.142;14.482;2023-04-25T11:37:38;16.50;1.00
16532;DHT22;66872;63.142;14.482;2023-04-25T11:40:05;16.50;1.00
16532;DHT22;66872;63.142;14.482;2023-04-25T11:42:43;16.50;1.00
16532;DHT22;66872;63.142;14.482;2023-04-25T11:45:09;16.60;1.00
16532;DHT22;66872;63.142;14.482;2023-04-25T11:47:35;16.60;1.00
16532;DHT22;66872;63.142;14.482;2023-04-25T11:50:06;16.60;1.00
16532;DHT22;66872;63.142;14.482;2023-04-25T11:52:45;16.60;1.00
16532;DHT22;66872;63.142;14.482;2023-04-25T11:57:42;16.60;1.00
16532;DHT22;66872;63.142;14.482;2023-04-25T12:00:12;16.60;1.00
16532;DHT22;66872;63.142;14.482;2023-04-25T12:02:42;16.70;1.00
16532;DHT22;66872;63.142;14.482;2023-04-25T12:05:09;16.70;1.00
16532;DHT22;66872;63.142;14.482;2023-04-25T12:07:35;16.70;1.00
16532;DHT22;66872;63.142;14.482;2023-04-25T12:10:15;16.70;1.00
16532;DHT22;66872;63.142;14.482;2023-04-25T12:12:44;16.70;1.00
16532;DHT22;66872;63.142;14.482;2023-04-25T12:15:17;16.70;1.00
16532;DHT22;66872;63.142;14.482;2023-04-25T12:17:54;16.70;1.00
16532;DHT22;66872;63.142;14.482;2023-04-25T12:20:25;16.70;1.00
16532;DHT22;66872;63.142;14.482;2023-04-25T12:22:51;16.70;1.00
16532;DHT22;66872;63.142;14.482;2023-04-25T12:25:42;16.70;1.00
16532;DHT22;66872;63.142;14.482;2023-04-25T12:30:57;16.70;1.00
16532;DHT22;66872;63.142;14.482;2023-04-25T12:33:24;16.70;1.00
16532;DHT22;66872;63.142;14.482;2023-04-25T12:35:50;16.70;1.00
16532;DHT22;66872;63.142;14.482;2023-04-25T12:38:27;16.60;1.00
16532;DHT22;66872;63.142;14.482;2023-04-25T12:40:55;16.70;1.00
16532;DHT22;66872;63.142;14.482;2023-04-25T12:43:21;16.60;1.00
16532;DHT22;66872;63.142;14.482;2023-04-25T12:45:54;16.60;1.00
16532;DHT22;66872;63.142;14.482;2023-04-25T12:48:20;16.60;1.00
16532;DHT22;66872;63.142;14.482;2023-04-25T12:50:47;16.60;1.00
16532;DHT22;66872;63.142;14.482;2023-04-25T12:53:16;16.50;1.00
16532;DHT22;66872;63.142;14.482;2023-04-25T12:55:42;16.50;1.00
16532;DHT22;66872;63.142;14.482;2023-04-25T12:58:08;16.50;1.00
16532;DHT22;66872;63.142;14.482;2023-04-25T13:00:34;16.50;1.00
16532;DHT22;66872;63.142;14.482;2023-04-25T13:02:59;16.50;1.00
16532;DHT22;66872;63.142;14.482;2023-04-25T13:05:25;16.50;1.00
16532;DHT22;66872;63.142;14.482;2023-04-25T13:07:51;16.50;1.00
16532;DHT22;66872;63.142;14.482;2023-04-25T13:10:17;16.40;1.00
16532;DHT22;66872;63.142;14.482;2023-04-25T13:12:43;16.40;1.00
16532;DHT22;66872;63.142;14.482;2023-04-25T13:15:09;16.40;1.00
16532;DHT22;66872;63.142;14.482;2023-04-25T13:17:37;16.40;1.00
16532;DHT22;66872;63.142;14.482;2023-04-25T13:20:07;16.30;1.00
16532;DHT22;66872;63.142;14.482;2023-04-25T13:22:37;16.30;1.00
16532;DHT22;66872;63.142;14.482;2023-04-25T13:25:04;16.30;1.00
16532;DHT22;66872;63.142;14.482;2023-04-25T13:27:31;16.20;1.00
16532;DHT22;66872;63.142;14.482;2023-04-25T13:29:58;16.20;1.00
16532;DHT22;66872;63.142;14.482;2023-04-25T13:32:24;16.20;1.00
16532;DHT22;66872;63.142;14.482;2023-04-25T13:34:51;16.20;1.00
16532;DHT22;66872;63.142;14.482;2023-04-25T13:37:17;16.10;1.00
16532;DHT22;66872;63.142;14.482;2023-04-25T13:39:42;16.10;1.00
16532;DHT22;66872;63.142;14.482;2023-04-25T13:42:08;16.10;1.00
16532;DHT22;66872;63.142;14.482;2023-04-25T13:44:34;16.10;1.00
16532;DHT22;66872;63.142;14.482;2023-04-25T13:46:59;16.00;1.00
16532;DHT22;66872;63.142;14.482;2023-04-25T13:49:26;16.00;1.00
16532;DHT22;66872;63.142;14.482;2023-04-25T13:51:52;16.00;1.00
16532;DHT22;66872;63.142;14.482;2023-04-25T13:54:17;16.00;1.00
16532;DHT22;66872;63.142;14.482;2023-04-25T13:56:43;16.00;1.00
16532;DHT22;66872;63.142;14.482;2023-04-25T13:59:09;15.90;1.00
16532;DHT22;66872;63.142;14.482;2023-04-25T14:01:35;16.00;1.00
16532;DHT22;66872;63.142;14.482;2023-04-25T14:04:01;15.90;1.00
16532;DHT22;66872;63.142;14.482;2023-04-25T14:06:29;15.90;1.00
16532;DHT22;66872;63.142;14.482;2023-04-25T14:08:55;15.90;1.00
16532;DHT22;66872;63.142;14.482;2023-04-25T14:11:21;15.90;1.00
16532;DHT22;66872;63.142;14.482;2023-04-25T14:13:47;15.90;1.00
16532;DHT22;66872;63.142;14.482;2023-04-25T14:16:15;15.90;1.00
16532;DHT22;66872;63.142;14.482;2023-04-25T14:18:41;15.90;1.00
16532;DHT22;66872;63.142;14.482;2023-04-25T14:21:07;15.90;1.00
16532;DHT22;66872;63.142;14.482;2023-04-25T14:23:32;15.80;1.00
16532;DHT22;66872;63.142;14.482;2023-04-25T14:25:58;15.80;1.00
16532;DHT22;66872;63.142;14.482;2023-04-25T14:28:23;15.80;1.00
16532;DHT22;66872;63.142;14.482;2023-04-25T14:30:49;15.80;1.00
16532;DHT22;66872;63.142;14.482;2023-04-25T14:33:15;15.80;1.00
16532;DHT22;66872;63.142;14.482;2023-04-25T14:35:40;15.80;1.00
16532;DHT22;66872;63.142;14.482;2023-04-25T14:38:06;15.80;1.00
16532;DHT22;66872;63.142;14.482;2023-04-25T14:40:33;15.80;1.00
16532;DHT22;66872;63.142;14.482;2023-04-25T14:42:58;15.80;1.00
16532;DHT22;66872;63.142;14.482;2023-04-25T14:45:24;15.70;1.00
16532;DHT22;66872;63.142;14.482;2023-04-25T14:47:50;15.80;1.00
16532;DHT22;66872;63.142;14.482;2023-04-25T14:50:16;15.70;1.00
16532;DHT22;66872;63.142;14.482;2023-04-25T14:52:42;15.70;1.00
16532;DHT22;66872;63.142;14.482;2023-04-25T14:55:08;15.70;1.00
16532;DHT22;66872;63.142;14.482;2023-04-25T14:57:34;15.70;1.00
16532;DHT22;66872;63.142;14.482;2023-04-25T15:00:00;15.70;1.00
16532;DHT22;66872;63.142;14.482;2023-04-25T15:02:27;15.70;1.00
16532;DHT22;66872;63.142;14.482;2023-04-25T15:04:53;15.70;1.00
16532;DHT22;66872;63.142;14.482;2023-04-25T15:07:21;15.70;1.00
16532;DHT22;66872;63.142;14.482;2023-04-25T15:09:47;15.70;1.00
16532;DHT22;66872;63.142;14.482;2023-04-25T15:12:13;15.70;1.00
16532;DHT22;66872;63.142;14.482;2023-04-25T15:14:39;15.70;1.00
16532;DHT22;66872;63.142;14.482;2023-04-25T15:17:05;15.70;1.00
16532;DHT22;66872;63.142;14.482;2023-04-25T15:19:31;15.70;1.00
16532;DHT22;66872;63.142;14.482;2023-04-25T15:21:57;15.70;1.00
16532;DHT22;66872;63.142;14.482;2023-04-25T15:24:25;15.70;1.00
16532;DHT22;66872;63.142;14.482;2023-04-25T15:26:51;15.70;1.00
16532;DHT22;66872;63.142;14.482;2023-04-25T15:29:17;15.70;1.00
16532;DHT22;66872;63.142;14.482;2023-04-25T15:31:43;15.60;1.00
16532;DHT22;66872;63.142;14.482;2023-04-25T15:34:09;15.70;1.00
16532;DHT22;66872;63.142;14.482;2023-04-25T15:36:34;15.60;1.00
16532;DHT22;66872;63.142;14.482;2023-04-25T15:39:00;15.70;1.00
16532;DHT22;66872;63.142;14.482;2023-04-25T15:41:28;15.70;1.00
16532;DHT22;66872;63.142;14.482;2023-04-25T15:43:54;15.70;1.00